Archival Weather

Southern Wisconsin Rgnl

Janesville, Wisconsin (KJVL)

Report from: Tuesday, June 6, 2023 4:15 AM CDT
Current time: Wednesday, December 6, 2023 1:51 AM CST

Current weather – Weather history – Daily summaries
Weather forecast

Temperature18.0°C (64.4°F)
Dew point7.0°C (44.6°F)
Winds Calm
Visibility10 mi. (16.1 km)
Clouds Sky clear
Altimeter30.01 in.Hg (1016 mB)
Relative humidity49 %
Density altitude397 ft. (121 m)
Remarks Fully automated report
Automated weather observing station with precipitation discriminator
Flight conditions Visual Meteorological Conditions
Raw dataKJVL 060915Z AUTO 00000KT 10SM CLR 18/07 A3001 RMK AO2
An error has occurred. This application may no longer respond until reloaded. Reload 🗙